USSS

Koltsovo Airport

Yekaterinburg, Russian Federation
TAF USSS 200752Z 2009/2109 21003G08MPS 2100 -SHSN BKN011 SCT015CB TEMPO 2009/2016 0700 +SHSN VV004 BECMG 2016/2017 28003G11MPS 3100 -SHSN
Issued Valid From Valid To
Jan-20 @ 07:52 UTC
(4 hours ago)
Jan-20 @ 09:00 UTC
(2 hours ago)
Jan-21 @ 09:00 UTC
(in 22 hours)
Jan-20 @ 09:00 to Jan-20 @ 16:00
TAF USSS 200752Z 2009/2109 21003G08MPS 2100 -SHSN BKN011 SCT015CB
Wind Visibility Clouds Conditions
210° at 6 knots
 Gusting to 16 knots
2,092 meters
  • Broken at 1,100' AGL
  • Scattered at 1,500' AGL
  • Light Snow
Temporary Jan-20 @ 09:00 to Jan-20 @ 16:00
TEMPO 2009/2016 0700 +SHSN VV004
Visibility Clouds Conditions
692 meters
  • Vertical visibility at 400' AGL
  • Heavy Snow
Becoming Jan-20 @ 16:00 to Jan-21 @ 09:00
BECMG 2016/2017 28003G11MPS 3100 -SHSN
Wind Visibility Clouds Conditions
280° at 6 knots
 Gusting to 21 knots
3,106 meters
  • Broken at 1,100' AGL
  • Scattered at 1,500' AGL
  • Light Snow
TAF USSS 200752Z 2009/2109 21003G08MPS 2100 -SHSN BKN011 SCT015CB TEMPO 2009/2016 0700 +SHSN VV004 BECMG 2016/2017 28003G11MPS 3100 -SHSN
Issued Jan-20 @ 07:52 UTC
(4 hours ago)
Valid From Jan-20 @ 09:00 UTC
(2 hours ago)
Valid To Jan-21 @ 09:00 UTC
(in 22 hours)
Jan-20 @ 09:00 - Jan-20 @ 16:00
Wind Visibility
210° at 6 knots
 Gusting to 16 knots
2,092 meters
Clouds
  • Broken at 1,100' AGL
  • Scattered at 1,500' AGL
Conditions
  • Light Snow
Temporary Jan-20 @ 09:00 - Jan-20 @ 16:00
Clouds
  • Vertical visibility at 400' AGL
Conditions
  • Heavy Snow
Becoming Jan-20 @ 16:00 - Jan-21 @ 09:00
Wind Visibility
280° at 6 knots
 Gusting to 21 knots
3,106 meters
Clouds
  • Broken at 1,100' AGL
  • Scattered at 1,500' AGL
Conditions
  • Light Snow